Loveland (283, 1166, DV1, 6914, 625) Station Data

Red Flag Warning: No
Fire Weather Zone: 250
SDGE Region: Eastern
Lat/Lon: 32.808/-116.788

Observations

Time Wind Speed/Gust Temp(F) RH Fuel Moist Fuel Temp(F) Dewpt(F) Tmax(F) Tmin(F) Accum Precip 10-min Precip SL Press(mb)
6/22 5:00am 31 0 G 2 71° 32% - - 40° 73.4° 65.8° - - 871.0
6/22 4:50am 51 1 G 2 71° 34% - - 41° 73.4° 65.8° - - 872.0
6/22 4:40am 35 2 G 3 69° 41% - - 45° 73.4° 65.8° - - 874.0
6/22 4:30am 49 2 G 3 68° 49% - - 48° 73.4° 65.8° - - 877.0
6/22 4:20am 30 2 G 3 67° 56% - - 50° 73.4° 65.8° - - 880.0
6/22 4:10am 53 3 G 4 67° 58% - - 52° 73.4° 65.8° - - 880.0
6/22 4:00am 178 0 G 1 69° 53% - - 51° 73.4° 66.9° - - 878.0
6/22 3:50am 56 0 G 1 70° 45% - - 48° 73.4° 66.9° - - 876.0
6/22 3:40am 22 0 G 1 70° 47% - - 48° 73.4° 66.9° - - 876.0
6/22 3:30am 18 1 G 2 70° 46% - - 48° 73.4° 66.9° - - 876.0
6/22 3:20am 42 2 G 2 69° 52% - - 50° 73.4° 66.9° - - 879.0
6/22 3:10am 47 1 G 1 69° 57% - - 53° 73.4° 66.9° - - 880.0
6/22 3:00am 253 1 G 3 68° 60% - - 54° 73.4° 66.9° - - 882.0
6/22 2:50am 305 2 G 4 69° 56% - - 53° 73.4° 66.9° - - 880.0
6/22 2:40am 57 2 G 3 70° 56% - - 54° 73.4° 66.9° - - 880.0
6/22 2:30am 46 2 G 3 70° 56% - - 54° 73.4° 66.9° - - 880.0
6/22 2:20am 64 2 G 3 70° 57% - - 54° 73.4° 66.9° - - 881.0
6/22 2:10am 73 2 G 3 68° 64% - - 56° 73.4° 66.9° - - 884.0
6/22 2:00am 51 2 G 4 67° 69% - - 57° 73.4° 66.9° - - 885.0
6/22 1:50am 55 3 G 4 68° 68% - - 57° 73.4° 66.9° - - 885.0
6/22 1:40am 55 2 G 3 67° 71% - - 57° 73.4° 66.9° - - 886.0
6/22 1:30am 86 1 G 2 67° 70% - - 57° 73.4° 67° - - 886.0
6/22 1:20am 91 0 G 1 68° 69% - - 57° 73.4° 67.4° - - 886.0
6/22 1:10am 88 0 G 1 68° 69% - - 57° 73.4° 67.4° - - 885.0
6/22 1:00am 214 1 G 2 69° 66% - - 57° 73.4° 67.9° - - 885.0
6/22 12:50am 250 1 G 3 71° 62% - - 57° 73.4° 69.3° - - 883.0
6/22 12:40am 267 2 G 3 73° 58% - - 57° 73.4° 71.9° - - 882.0
6/22 12:30am 263 0 G 2 73° 57% - - 57° 73.4° 71.9° - - 882.0
6/22 12:20am 74 1 G 2 73° 57% - - 57° 73.4° 71.9° - - 882.0
6/22 12:10am 109 1 G 2 72° 59% - - 57° 72.5° 71.9° - - 882.0
6/22 12:00am 65 2 G 3 73° 57% - - 56° 93.5° 70.4° - - 882.0
6/21 11:50pm 29 3 G 4 73° 57% - - 57° 93.5° 70.4° - - 882.0
6/21 11:40pm 42 2 G 3 73° 59% - - 58° 93.5° 70.4° - - 882.0
6/21 11:30pm 80 1 G 2 73° 59% - - 58° 93.5° 70.4° - - 883.0
6/21 11:20pm 79 1 G 2 71° 62% - - 58° 93.5° 70.4° - - 884.0
6/21 11:10pm 95 2 G 3 71° 62% - - 58° 93.5° 70.4° - - 884.0
6/21 11:00pm 103 3 G 3 71° 62% - - 58° 93.5° 70.4° - - 883.0
6/21 10:50pm 73 2 G 3 71° 62% - - 57° 93.5° 70.4° - - 884.0
6/21 10:40pm 47 2 G 3 71° 62% - - 57° 93.5° 70.6° - - 884.0
6/21 10:30pm 45 2 G 3 71° 62% - - 57° 93.5° 70.6° - - 884.0
6/21 10:20pm 63 2 G 2 71° 61% - - 57° 93.5° 70.9° - - 883.0
6/21 10:10pm 102 0 G 2 72° 60% - - 57° 93.5° 71.6° - - 883.0
6/21 10:00pm 0 0 G 0 72° 60% - - 57° 93.5° 71.8° - - 883.0
6/21 9:50pm 212 0 G 1 72° 60% - - 57° 93.5° 71.9° - - 883.0
6/21 9:40pm 234 0 G 1 72° 59% - - 57° 93.5° 72.1° - - 883.0
6/21 9:30pm 0 0 G 0 73° 58% - - 57° 93.5° 72.4° - - 883.0
6/21 9:20pm 69 0 G 1 74° 57% - - 57° 93.5° 73.1° - - 882.0
6/21 9:10pm 181 0 G 0 74° 56% - - 57° 93.5° 73.6° - - 882.0
6/21 9:00pm 72 0 G 1 74° 55% - - 57° 93.5° 73.6° - - 882.0
6/21 8:50pm 7 0 G 2 74° 56% - - 57° 93.5° 73.6° - - 882.0
6/21 8:40pm 251 2 G 3 74° 56% - - 57° 93.5° 73.7° - - 883.0
6/21 8:30pm 229 0 G 2 75° 54% - - 57° 93.5° 74.4° - - 882.0
6/21 8:20pm 181 0 G 0 76° 52% - - 57° 93.5° 75.1° - - 882.0
6/21 8:10pm 263 1 G 3 76° 52% - - 57° 93.5° 75.8° - - 882.0
6/21 8:00pm 258 2 G 3 77° 51% - - 57° 93.5° 75.8° - - 882.0
6/21 7:50pm 290 2 G 4 77° 51% - - 57° 93.5° 76.1° - - 882.0
6/21 7:40pm 271 2 G 3 78° 48% - - 57° 93.5° 76.8° - - 882.0
6/21 7:30pm 278 2 G 3 78° 47% - - 57° 93.5° 77.4° - - 882.0
6/21 7:20pm 254 3 G 4 78° 49% - - 57° 93.5° 77.4° - - 883.0
6/21 7:10pm 251 4 G 5 78° 48% - - 57° 93.5° 77.5° - - 883.0
6/21 7:00pm 248 5 G 7 79° 47% - - 57° 93.5° 77.5° - - 883.0
6/21 6:50pm 251 6 G 8 79° 46% - - 57° 93.5° 77.5° - - 883.0
6/21 6:40pm 250 6 G 8 80° 44% - - 57° 93.5° 77.5° - - 883.0
6/21 6:30pm 249 6 G 9 81° 44% - - 57° 93.5° 77.5° - - 883.0
6/21 6:20pm 249 6 G 9 81° 44% - - 57° 93.5° 77.5° - - 883.0
6/21 6:10pm 249 7 G 10 81° 43% - - 56° 93.5° 77.5° - - 883.0
6/21 6:00pm 243 7 G 11 82° 41% - - 56° 93.5° 77.5° - - 883.0
6/21 5:50pm 244 8 G 10 83° 40% - - 56° 93.5° 77.5° - - 883.0
6/21 5:40pm 245 7 G 11 84° 38% - - 56° 93.5° 77.5° - - 883.0
6/21 5:30pm 239 5 G 8 85° 37% - - 56° 93.5° 77.5° - - 883.0
6/21 5:20pm 239 5 G 9 85° 37% - - 56° 93.5° 77.5° - - 883.0
6/21 5:10pm 244 6 G 11 85° 37% - - 56° 93.5° 77.5° - - 883.0
6/21 5:00pm 246 6 G 11 85° 37% - - 56° 93.5° 77.5° - - 883.0
6/21 4:50pm 247 8 G 14 85° 37% - - 56° 93.5° 77.5° - - 883.0
6/21 4:40pm 244 7 G 12 85° 36% - - 55° 93.5° 77.5° - - 883.0
6/21 4:30pm 247 7 G 12 85° 36% - - 55° 93.5° 77.5° - - 883.0
6/21 4:20pm 241 8 G 14 86° 34% - - 55° 93.5° 77.5° - - 883.0
6/21 4:10pm 246 7 G 13 86° 34% - - 55° 93.5° 77.5° - - 883.0
6/21 4:00pm 235 7 G 12 87° 34% - - 55° 93.5° 77.5° - - 883.0
6/21 3:50pm 241 8 G 14 87° 34% - - 55° 93.5° 77.5° - - 883.0
6/21 3:40pm 240 7 G 13 87° 34% - - 55° 93.5° 77.5° - - 883.0
6/21 3:30pm 245 7 G 14 88° 33% - - 55° 93.5° 77.5° - - 883.0
6/21 3:20pm 238 8 G 14 88° 33% - - 55° 93.5° 77.5° - - 883.0
6/21 3:10pm 244 7 G 15 88° 33% - - 55° 93.5° 77.5° - - 883.0
6/21 3:00pm 243 7 G 14 88° 32% - - 55° 93.5° 77.5° - - 883.0
6/21 2:50pm 240 7 G 15 89° 32% - - 55° 93.5° 77.5° - - 883.0
6/21 2:40pm 244 8 G 13 88° 32% - - 55° 93.5° 77.5° - - 883.0
6/21 2:30pm 245 8 G 15 89° 32% - - 55° 93.5° 77.5° - - 883.0
6/21 2:20pm 243 9 G 15 89° 32% - - 55° 93.5° 77.5° - - 883.0
6/21 2:10pm 242 10 G 16 88° 32% - - 55° 93.5° 77.5° - - 883.0
6/21 2:00pm 243 10 G 17 90° 30% - - 54° 93.5° 77.5° - - 883.0
6/21 1:50pm 243 9 G 16 91° 28% - - 54° 93.5° 77.5° - - 882.0
6/21 1:40pm 238 8 G 16 91° 28% - - 54° 93.5° 77.5° - - 882.0
6/21 1:30pm 234 8 G 15 92° 27% - - 54° 93.5° 77.5° - - 882.0
6/21 1:20pm 235 6 G 13 92° 27% - - 54° 93.3° 77.5° - - 881.0
6/21 1:10pm 243 7 G 14 91° 28% - - 54° 92.6° 77.5° - - 881.0
6/21 1:00pm 238 7 G 13 91° 29% - - 54° 92.6° 77.5° - - 881.0
6/21 12:50pm 243 7 G 13 91° 29% - - 54° 92.6° 77.5° - - 881.0
6/21 12:40pm 240 7 G 13 91° 29% - - 54° 92.6° 77.5° - - 881.0
6/21 12:30pm 237 6 G 12 90° 30% - - 55° 92.6° 77.5° - - 880.0
6/21 12:20pm 250 7 G 12 90° 30% - - 54° 90.4° 77.5° - - 880.0
6/21 12:10pm 246 7 G 15 90° 30% - - 54° 90.3° 77.5° - - 880.0
6/21 12:00pm 240 7 G 15 89° 30% - - 53° 90.1° 77.5° - - 879.0
6/21 11:50am 238 7 G 13 89° 29% - - 53° 90.1° 77.5° - - 879.0
6/21 11:40am 251 9 G 14 88° 30% - - 52° 89.3° 77.5° - - 879.0
6/21 11:30am 245 8 G 12 89° 29% - - 52° 89.3° 77.5° - - 879.0
6/21 11:20am 242 7 G 10 88° 29% - - 52° 88.8° 77.5° - - 878.0
6/21 11:10am 245 7 G 12 88° 28% - - 51° 88.8° 77.5° - - 878.0
6/21 11:00am 244 6 G 9 87° 28% - - 50° 88° 77.5° - - 877.0
6/21 10:50am 240 6 G 9 87° 29% - - 51° 87.9° 77.5° - - 877.0
6/21 10:40am 238 5 G 7 87° 28% - - 50° 87.3° 77.5° - - 877.0
6/21 10:30am 242 5 G 7 86° 30% - - 50° 86.4° 77.5° - - 877.0
6/21 10:20am 242 5 G 8 85° 30% - - 50° 85.8° 77.5° - - 877.0
6/21 10:10am 251 6 G 8 85° 29% - - 50° 85.8° 77.5° - - 877.0
6/21 10:00am 244 5 G 8 84° 30% - - 50° 85.8° 77.5° - - 877.0
6/21 9:50am 245 5 G 6 85° 30% - - 49° 85.8° 77.5° - - 876.0
6/21 9:40am 245 5 G 7 85° 27% - - 47° 85.8° 77.5° - - 876.0
6/21 9:30am 241 4 G 6 84° 28% - - 48° 85.8° 77.5° - - 876.0
6/21 9:20am 244 3 G 5 84° 28% - - 48° 85.8° 77.5° - - 876.0
6/21 9:10am 252 4 G 5 84° 27% - - 47° 85.8° 77.5° - - 875.0
6/21 9:00am 242 3 G 5 85° 24% - - 44° 85.8° 77.5° - - 874.0
6/21 8:50am 244 3 G 4 84° 25% - - 45° 85.8° 77.5° - - 874.0
6/21 8:40am 249 3 G 4 83° 25% - - 44° 85.8° 77.5° - - 874.0
6/21 8:30am 246 3 G 4 83° 20% - - 39° 85.8° 77.5° - - 872.0
6/21 8:20am 237 2 G 3 84° 20% - - 38° 85.8° 77.5° - - 872.0
6/21 8:10am 181 2 G 2 85° 18% - - 36° 85.8° 77.5° - - 871.0
6/21 8:00am 103 1 G 3 85° 20% - - 39° 85.8° 77.5° - - 871.0
6/21 7:50am 64 2 G 4 83° 21% - - 40° 84.4° 77.5° - - 872.0
6/21 7:40am 69 2 G 3 83° 24% - - 42° 84.4° 77.5° - - 872.0
6/21 7:30am 62 2 G 3 82° 23% - - 41° 84.4° 77.5° - - 872.0
6/21 7:20am 77 2 G 3 82° 26% - - 43° 84.4° 77.5° - - 872.0
6/21 7:10am 254 1 G 2 83° 21% - - 39° 84.4° 77.5° - - 871.0
6/21 7:00am 115 0 G 1 84° 20% - - 39° 84.4° 77.5° - - 870.0
6/21 6:50am 35 1 G 2 81° 21% - - 38° 82.5° 77.5° - - 870.0
6/21 6:40am 14 1 G 3 80° 22% - - 38° 81.8° 77.5° - - 870.0
6/21 6:30am 14 3 G 4 80° 22% - - 37° 81.8° 77.5° - - 870.0
6/21 6:20am 15 3 G 4 80° 23% - - 39° 81.8° 77.5° - - 870.0
6/21 6:10am 30 1 G 2 79° 25% - - 40° 81.8° 77.5° - - 871.0
6/21 6:00am 9 1 G 2 79° 26% - - 41° 81.8° 77.5° - - 871.0
6/21 5:50am 14 2 G 3 78° 27% - - 42° 81.8° 77.5° - - 872.0
6/21 5:40am 33 2 G 3 79° 28% - - 43° 81.8° 77.5° - - 872.0
6/21 5:30am 44 0 G 2 79° 28% - - 43° 81.8° 77.5° - - 872.0
6/21 5:20am 31 2 G 4 79° 28% - - 43° 81.8° 77.5° - - 872.0
6/21 5:10am 24 3 G 4 79° 27% - - 43° 81.8° 77.5° - - 872.0
6/21 5:00am 31 3 G 4 79° 28% - - 43° 81.8° 77.5° - - 872.0
6/21 4:50am 356 2 G 4 79° 29% - - 44° 81.8° 77.5° - - 873.0
6/21 4:40am 5 3 G 4 78° 30% - - 44° 81.8° 77.5° - - 873.0
6/21 4:30am 5 5 G 6 78° 30% - - 44° 81.8° 77.5° - - 873.0
6/21 4:20am 11 5 G 6 78° 30% - - 44° 81.8° 77.7° - - 873.0
6/21 4:10am 17 4 G 5 79° 29% - - 44° 81.8° 77.7° - - 873.0
6/21 4:00am 27 3 G 5 80° 28% - - 44° 81.8° 77.7° - - 872.0
6/21 3:50am 5 3 G 4 79° 29% - - 44° 81.8° 77.7° - - 872.0
6/21 3:40am 10 4 G 4 78° 30% - - 44° 81.8° 77.7° - - 873.0
6/21 3:30am 10 4 G 5 78° 30% - - 44° 81.8° 77.7° - - 873.0
6/21 3:20am 22 4 G 5 79° 29% - - 44° 81.8° 77.7° - - 873.0
6/21 3:10am 12 4 G 5 78° 30% - - 44° 81.8° 77.7° - - 873.0
6/21 3:00am 9 5 G 6 78° 30% - - 44° 81.8° 77.7° - - 873.0
6/21 2:50am 10 5 G 6 79° 29% - - 43° 81.8° 78.2° - - 873.0
6/21 2:40am 10 4 G 4 79° 29% - - 43° 81.8° 78.2° - - 873.0
6/21 2:30am 2 4 G 5 79° 28% - - 43° 81.8° 78.3° - - 873.0
6/21 2:20am 14 3 G 4 79° 28% - - 43° 81.8° 78.5° - - 872.0
6/21 2:10am 27 3 G 5 80° 27% - - 43° 81.8° 79.2° - - 872.0
6/21 2:00am 27 3 G 4 80° 27% - - 43° 81.8° 79.3° - - 873.0
6/21 1:50am 8 3 G 4 80° 27% - - 44° 81.8° 79.3° - - 873.0
6/21 1:40am 1 3 G 4 80° 28% - - 44° 81.8° 79.3° - - 873.0
6/21 1:30am 23 2 G 4 81° 28% - - 45° 81.8° 79.3° - - 873.0
6/21 1:20am 24 2 G 3 81° 29% - - 45° 81.4° 79.3° - - 873.0
6/21 1:10am 14 3 G 4 81° 29% - - 45° 81.4° 79.3° - - 873.0
6/21 1:00am 27 3 G 4 81° 29% - - 46° 81.4° 79.3° - - 874.0
6/21 12:50am 17 3 G 4 81° 30% - - 46° 81.3° 79.3° - - 874.0
6/21 12:40am 18 3 G 5 81° 30% - - 47° 81.3° 79.3° - - 874.0
6/21 12:30am 20 3 G 4 80° 32% - - 47° 80.7° 79.3° - - 874.0
6/21 12:20am 29 4 G 5 80° 32% - - 48° 80.1° 79.3° - - 875.0
6/21 12:10am 9 3 G 4 80° 33% - - 48° 80° 79.3° - - 875.0
6/21 12:00am 16 3 G 4 80° 33% - - 48° 97.5° 73.8° - - 875.0
6/20 11:50pm 25 4 G 5 81° 33% - - 49° 97.5° 73.8° - - 875.0
6/20 11:40pm 29 4 G 5 81° 33% - - 49° 97.5° 73.8° - - 875.0
6/20 11:30pm 33 3 G 5 82° 33% - - 49° 97.5° 73.8° - - 875.0
6/20 11:20pm 29 3 G 4 81° 33% - - 49° 97.5° 73.8° - - 875.0
6/20 11:10pm 17 4 G 5 80° 34% - - 50° 97.5° 73.8° - - 876.0
6/20 11:00pm 19 5 G 6 81° 34% - - 50° 97.5° 73.8° - - 876.0
6/20 10:50pm 19 3 G 5 82° 34% - - 50° 97.5° 73.8° - - 876.0
6/20 10:40pm 19 4 G 5 81° 35% - - 51° 97.5° 73.8° - - 876.0
6/20 10:30pm 12 4 G 5 81° 36% - - 51° 97.5° 73.8° - - 877.0
6/20 10:20pm 24 3 G 5 81° 35% - - 51° 97.5° 73.8° - - 876.0
6/20 10:10pm 36 3 G 4 81° 36% - - 52° 97.5° 73.8° - - 877.0
6/20 10:00pm 49 2 G 3 81° 36% - - 52° 97.5° 73.8° - - 877.0
6/20 9:50pm 31 2 G 3 81° 37% - - 52° 97.5° 73.8° - - 877.0
6/20 9:40pm 15 4 G 4 81° 37% - - 52° 97.5° 73.8° - - 877.0
6/20 9:30pm 36 2 G 3 82° 35% - - 51° 97.5° 73.8° - - 877.0
6/20 9:20pm 39 2 G 3 82° 35% - - 51° 97.5° 73.8° - - 877.0
6/20 9:10pm 43 2 G 3 82° 35% - - 51° 97.5° 73.8° - - 877.0
6/20 9:00pm 39 2 G 2 82° 35% - - 52° 97.5° 73.8° - - 877.0
6/20 8:50pm 32 2 G 2 82° 36% - - 52° 97.5° 73.8° - - 877.0
6/20 8:40pm 25 2 G 2 81° 37% - - 52° 97.5° 73.8° - - 878.0
6/20 8:30pm 50 1 G 2 81° 36% - - 52° 97.5° 73.8° - - 878.0
6/20 8:20pm 75 0 G 1 81° 37% - - 52° 97.5° 73.8° - - 879.0
6/20 8:10pm 0 0 G 0 81° 37% - - 52° 97.5° 73.8° - - 879.0
6/20 8:00pm 253 2 G 4 82° 36% - - 52° 97.5° 73.8° - - 879.0
6/20 7:50pm 256 3 G 4 83° 34% - - 52° 97.5° 73.8° - - 880.0
6/20 7:40pm 254 3 G 4 83° 34% - - 52° 97.5° 73.8° - - 880.0
6/20 7:30pm 250 3 G 5 84° 33% - - 52° 97.5° 73.8° - - 880.0
6/20 7:20pm 255 4 G 6 84° 33% - - 52° 97.5° 73.8° - - 881.0
6/20 7:10pm 250 4 G 5 85° 32% - - 52° 97.5° 73.8° - - 881.0
6/20 7:00pm 255 4 G 6 85° 31% - - 52° 97.5° 73.8° - - 881.0
6/20 6:50pm 247 5 G 7 86° 31% - - 52° 97.5° 73.8° - - 881.0
6/20 6:40pm 255 6 G 8 85° 32% - - 52° 97.5° 73.8° - - 881.0
6/20 6:30pm 245 7 G 10 86° 31% - - 52° 97.5° 73.8° - - 882.0
6/20 6:20pm 249 7 G 12 86° 31% - - 52° 97.5° 73.8° - - 882.0
6/20 6:10pm 232 6 G 11 87° 30% - - 52° 97.5° 73.8° - - 882.0
6/20 6:00pm 217 5 G 9 87° 30% - - 52° 97.5° 73.8° - - 883.0